Terminal Aerodrome Forecast
Issued by NWS

Home | Current Version | Previous Version | Text Only | Print | Product List | Glossary On
Versions: 1 2 3 4 5 6 7 8 9 10 11 12 13 14 15 16 17
000
FTUS45 KGJT 292320
TAFMTJ
TAF
KMTJ 292320Z 3000/3024 24006KT P6SM VCSH SCT070 SCT110
     FM300200 21007KT P6SM BKN060
     FM300300 17006KT P6SM BKN050
     FM301500 00000KT P6SM BKN060
     FM302100 31006KT P6SM BKN060=

USA.gov is the U.S. government's official web portal to all federal, state and local government web resources and services.